Parc Sabana Eneas, Puerto Rico
Current Conditions -  °F | °C
As of 12:50 PM on Thursday 27 Nov 2014 (Local Time) from TJBQ Reporting Station
Scattered Clouds Scattered Clouds  
Wind Chill: 84°   Ceiling: Unl
Heat Index: 88°   Visibility: 10mi
Dew Point: 70°   Wind: 18mph
Humidity: 62%   Direction: 70°ENE
Pressure: 29.98"   Gusts: 21mph
Location:  18.0846°N, 67.0463°W
Report Text: TJBQ 271650Z 07016G18KT 10SM SCT030 29/21 A2998 RMK RWY08 ATIS D
Loading
Personal Weather Stations






























Interactive Weather Map New forecast layout! Learn more

10-Day Weather Forecast

Advertisements
Track Severe Weather on mobile